Terminal Aerodrome Forecast
Issued by NWS

Current Version | Previous Version | Text Only | Print | Product List | Glossary On
Versions: 1 2 3 4 5 6 7 8 9 10 11 12 13 14 15 16 17 18 19 20 21 22 23 24 25 26 27
000
FTUS46 KLOX 120546
TAFLAX
TAF
KLAX 120546Z 1206/1312 VRB03KT P6SM BKN200
     FM121000 00000KT 6SM BCFG SCT001 BKN250
     FM121500 VRB03KT P6SM BKN250
     FM122000 27010KT P6SM BKN250
     FM130200 VRB03KT 2SM BR BKN005
     FM130900 VRB03KT 3SM BR OVC007=

USA.gov is the U.S. government's official web portal to all federal, state and local government web resources and services.